Time;durP1;ratioP1;P1;durP2;ratioP2;P2;SDS_P1;SDS_P2;PMS_P1;PMS_P2;Temp;Humidity;BMP_temperature;BMP_pressure;BME280_temperature;BME280_humidity;BME280_pressure;Samples;Min_cycle;Max_cycle;Signal;HPM_P1;HPM_P2
2021/11/28 00:00:06;;;;;;;;;8.25;4.75;;;;;4.52;93.00;98859.47;4995630;28;46118;-75
2021/11/28 00:02:34;;;;;;;;;5.00;4.00;;;;;4.56;92.25;98864.53;4998945;28;45424;-77
2021/11/28 00:05:01;;;;;;;;;4.50;4.50;;;;;4.58;91.69;98867.91;5002586;28;45231;-76
2021/11/28 00:10:42;;;;;;;;;3.50;3.50;;;;;4.49;90.60;98856.97;4992636;28;45456;-77
2021/11/28 00:13:09;;;;;;;;;5.00;4.00;;;;;4.59;90.52;98861.78;4992408;28;45329;-77
2021/11/28 00:15:35;;;;;;;;;3.75;3.75;;;;;4.52;89.86;98841.22;4991341;28;45384;-75
2021/11/28 00:18:01;;;;;;;;;5.25;4.00;;;;;4.62;90.19;98859.06;4992547;28;45513;-76
2021/11/28 00:20:27;;;;;;;;;7.00;4.00;;;;;4.63;89.99;98873.78;4994713;28;45385;-75
2021/11/28 00:22:52;;;;;;;;;2.50;2.50;;;;;4.64;89.30;98865.88;4995845;28;45366;-77
2021/11/28 00:25:20;;;;;;;;;4.25;3.00;;;;;4.63;89.07;98864.19;4995108;28;45488;-78
2021/11/28 00:27:47;;;;;;;;;4.00;4.00;;;;;4.66;88.49;98865.81;4995040;28;45441;-76
2021/11/28 00:30:18;;;;;;;;;4.00;2.75;;;;;4.66;87.71;98866.66;4995238;28;46266;-76
2021/11/28 00:32:44;;;;;;;;;4.75;3.00;;;;;4.70;87.28;98867.38;4995293;27;45252;-76
2021/11/28 00:35:10;;;;;;;;;3.75;3.50;;;;;4.72;86.98;98864.69;4996537;28;45276;-72
2021/11/28 00:37:35;;;;;;;;;4.75;3.00;;;;;4.73;86.96;98866.38;4995515;27;45269;-76
2021/11/28 00:40:02;;;;;;;;;3.00;3.00;;;;;4.73;87.05;98867.25;4997287;28;46196;-76
2021/11/28 00:42:27;;;;;;;;;4.00;2.75;;;;;4.67;86.30;98852.72;4996105;28;45268;-75
2021/11/28 00:44:52;;;;;;;;;7.00;4.00;;;;;4.67;85.95;98850.09;4997312;28;45228;-77
2021/11/28 00:47:19;;;;;;;;;4.75;4.00;;;;;4.60;85.64;98842.66;5000158;28;45249;-75
2021/11/28 00:50:04;;;;;;;;;4.50;3.00;;;;;4.78;85.97;98861.84;4998485;28;46156;-76
2021/11/28 00:52:31;;;;;;;;;3.75;3.00;;;;;4.75;85.32;98865.41;4995866;28;45245;-74
2021/11/28 00:54:56;;;;;;;;;5.00;3.50;;;;;4.79;85.90;98871.34;4995688;28;45520;-76
2021/11/28 00:57:23;;;;;;;;;4.25;4.00;;;;;4.76;85.78;98869.72;4995778;28;45610;-78
2021/11/28 00:59:49;;;;;;;;;5.50;4.00;;;;;4.82;85.34;98881.63;4995375;28;46084;-76
2021/11/28 01:02:16;;;;;;;;;4.00;3.00;;;;;4.84;85.02;98895.44;4997588;28;45359;-76
2021/11/28 01:04:41;;;;;;;;;6.25;4.25;;;;;4.83;84.99;98888.53;5000972;28;45294;-74
2021/11/28 01:07:07;;;;;;;;;4.00;2.75;;;;;4.87;84.69;98891.84;5005390;28;45568;-75
2021/11/28 01:09:32;;;;;;;;;5.00;3.00;;;;;4.86;84.59;98898.81;5005045;28;45222;-74
2021/11/28 01:11:58;;;;;;;;;3.75;3.75;;;;;4.88;84.59;98894.41;5002253;28;45241;-76
2021/11/28 01:14:23;;;;;;;;;2.00;2.00;;;;;4.89;84.07;98897.84;5007775;28;45224;-74
2021/11/28 01:16:48;;;;;;;;;3.25;3.25;;;;;4.89;83.95;98903.03;5007547;28;45261;-75
2021/11/28 01:19:16;;;;;;;;;3.00;2.00;;;;;4.90;84.04;98902.13;4998469;28;45197;-76
2021/11/28 01:21:54;;;;;;;;;3.25;2.00;;;;;4.90;83.33;98910.81;5000926;28;45284;-68
2021/11/28 01:24:19;;;;;;;;;5.50;2.25;;;;;4.92;83.81;98911.59;4994879;28;45424;-74
2021/11/28 01:26:45;;;;;;;;;3.00;2.00;;;;;4.76;83.69;98879.28;4995316;28;45591;-71
2021/11/28 01:29:10;;;;;;;;;4.75;4.00;;;;;4.96;83.98;98909.69;4995467;28;46006;-76
2021/11/28 01:31:36;;;;;;;;;4.50;3.00;;;;;4.98;83.58;98915.66;4995541;28;45401;-77
2021/11/28 01:34:02;;;;;;;;;6.00;3.00;;;;;5.00;83.44;98918.22;4995135;28;45485;-76
2021/11/28 01:36:27;;;;;;;;;5.50;3.00;;;;;4.95;83.56;98908.84;4997816;28;45532;-70
2021/11/28 01:38:52;;;;;;;;;3.25;3.25;;;;;5.03;82.93;98923.28;4996644;28;45779;-77
2021/11/28 01:41:18;;;;;;;;;2.25;2.25;;;;;5.04;83.49;98925.81;4998589;28;45271;-78
2021/11/28 01:43:44;;;;;;;;;1.00;1.00;;;;;5.03;83.09;98924.13;4997051;28;45343;-71
2021/11/28 01:46:10;;;;;;;;;2.00;2.00;;;;;5.02;82.85;98925.03;4995885;28;45329;-71
2021/11/28 01:48:36;;;;;;;;;4.00;3.25;;;;;5.02;82.73;98934.63;4994643;28;46329;-71
2021/11/28 01:51:02;;;;;;;;;2.75;2.75;;;;;5.02;82.51;98937.25;4994634;28;45424;-70
2021/11/28 01:53:29;;;;;;;;;6.25;4.00;;;;;5.02;82.81;98937.25;4994747;27;45382;-69
2021/11/28 01:55:56;;;;;;;;;3.50;2.00;;;;;5.03;82.64;98928.50;4996490;28;45360;-74
2021/11/28 01:58:23;;;;;;;;;3.50;2.00;;;;;5.04;82.13;98935.41;4999332;27;45413;-77
2021/11/28 02:00:54;;;;;;;;;5.00;3.00;;;;;5.06;82.35;98938.78;5001637;28;45260;-82
2021/11/28 02:03:20;;;;;;;;;3.75;2.00;;;;;5.05;82.48;98935.34;4996978;28;45399;-72
2021/11/28 02:05:50;;;;;;;;;3.00;3.00;;;;;5.07;82.33;98943.09;4993613;27;45527;-72
2021/11/28 02:08:16;;;;;;;;;3.25;3.25;;;;;5.07;82.57;98943.94;4995581;28;45520;-71
2021/11/28 02:10:42;;;;;;;;;3.25;2.50;;;;;5.08;82.19;98950.84;4996650;28;45326;-72
2021/11/28 02:13:08;;;;;;;;;3.75;2.75;;;;;5.08;82.00;98957.81;4996230;28;45268;-70
2021/11/28 02:15:34;;;;;;;;;3.25;3.25;;;;;5.07;82.39;98959.56;4995330;28;45492;-68
2021/11/28 02:18:00;;;;;;;;;2.75;2.25;;;;;5.07;82.55;98956.13;4995235;28;45330;-71
2021/11/28 02:20:30;;;;;;;;;2.50;1.00;;;;;5.02;82.26;98958.91;4993644;28;45930;-71
2021/11/28 02:22:57;;;;;;;;;4.25;3.00;;;;;5.05;81.95;98961.41;4997407;28;45390;-71
2021/11/28 02:25:26;;;;;;;;;2.00;2.00;;;;;5.05;82.07;98961.41;4997478;28;45587;-75
2021/11/28 02:27:53;;;;;;;;;4.75;2.00;;;;;5.04;81.81;98957.09;5002462;28;47027;-71
2021/11/28 02:30:19;;;;;;;;;1.00;1.00;;;;;5.05;81.89;98965.78;4999172;28;45293;-71
2021/11/28 02:32:47;;;;;;;;;1.75;1.75;;;;;5.05;81.95;98964.00;4995105;28;45352;-68
2021/11/28 02:35:14;;;;;;;;;2.00;1.00;;;;;5.02;81.77;98958.09;4994692;28;45239;-70
2021/11/28 02:37:42;;;;;;;;;1.75;1.75;;;;;5.05;81.76;98965.78;4994038;28;45993;-72
2021/11/28 02:40:09;;;;;;;;;1.00;1.00;;;;;5.05;81.43;98969.22;4993991;28;45282;-71
2021/11/28 02:42:35;;;;;;;;;5.00;1.00;;;;;5.03;81.53;98972.81;4994087;27;45244;-68
2021/11/28 02:45:00;;;;;;;;;1.75;1.50;;;;;5.03;81.91;98963.22;4995609;28;45573;-68
2021/11/28 02:47:25;;;;;;;;;3.00;3.00;;;;;5.02;81.77;98964.13;4993934;28;46153;-70
2021/11/28 02:49:51;;;;;;;;;2.00;1.50;;;;;5.06;81.70;98970.06;5010367;28;45365;-68
2021/11/28 02:52:16;;;;;;;;;2.00;1.00;;;;;5.04;81.96;98964.91;4993838;28;45386;-66
2021/11/28 02:54:42;;;;;;;;;2.00;2.00;;;;;5.03;81.89;98976.25;4994433;28;45523;-72
2021/11/28 02:57:08;;;;;;;;;2.75;2.00;;;;;5.05;81.65;98974.44;4993562;28;45507;-68
2021/11/28 02:59:34;;;;;;;;;2.00;2.00;;;;;5.02;81.44;98965.91;4992382;27;45665;-69
2021/11/28 03:01:59;;;;;;;;;1.00;1.00;;;;;4.93;81.68;98959.31;4993990;28;45333;-70
2021/11/28 03:04:25;;;;;;;;;2.75;2.00;;;;;5.01;81.38;98972.88;4993814;28;45150;-71
2021/11/28 03:06:50;;;;;;;;;2.00;2.00;;;;;5.03;81.52;98978.84;4993488;28;46148;-71
2021/11/28 03:09:16;;;;;;;;;2.00;1.00;;;;;4.99;81.20;98972.09;4993725;28;45372;-71
2021/11/28 03:11:41;;;;;;;;;2.25;2.25;;;;;5.00;81.23;98973.78;4994025;28;45360;-72
2021/11/28 03:14:07;;;;;;;;;2.50;1.00;;;;;5.00;81.02;98971.16;4997251;28;45653;-70
2021/11/28 03:16:32;;;;;;;;;3.00;1.00;;;;;4.92;80.74;98971.53;4995592;28;47827;-71
2021/11/28 03:18:57;;;;;;;;;2.75;2.00;;;;;4.93;81.38;98960.19;4993512;27;45318;-73
2021/11/28 03:21:26;;;;;;;;;2.00;2.00;;;;;4.93;81.15;98975.81;4993880;28;45337;-71
2021/11/28 03:23:56;;;;;;;;;1.50;1.00;;;;;4.95;81.06;98980.94;4993895;28;45573;-68
2021/11/28 03:26:35;;;;;;;;;4.00;2.00;;;;;4.95;80.70;98986.16;4991958;28;46984;-70
2021/11/28 03:29:11;;;;;;;;;2.50;1.00;;;;;4.95;81.16;98983.56;4994960;28;45332;-72
2021/11/28 03:31:41;;;;;;;;;2.00;1.00;;;;;4.91;80.79;98974.19;4998144;28;45360;-71
2021/11/28 03:34:08;;;;;;;;;0.75;0.75;;;;;4.91;81.50;98980.25;4993616;28;45223;-72
2021/11/28 03:36:38;;;;;;;;;1.00;0.00;;;;;4.91;80.94;98982.84;5012019;28;45432;-71
2021/11/28 03:39:11;;;;;;;;;3.00;2.00;;;;;4.88;81.06;98990.81;5013866;28;45428;-70
2021/11/28 03:41:36;;;;;;;;;0.00;0.00;;;;;4.85;81.04;98990.06;5012499;28;45498;-71
2021/11/28 03:44:03;;;;;;;;;1.75;1.75;;;;;4.85;81.46;98987.47;5013071;28;45592;-71
2021/11/28 03:46:29;;;;;;;;;4.75;1.00;;;;;4.80;81.67;98995.50;5013354;28;45492;-69
2021/11/28 03:48:58;;;;;;;;;1.50;1.00;;;;;4.86;81.42;98996.97;5012698;28;45374;-70
2021/11/28 03:51:24;;;;;;;;;2.00;2.00;;;;;4.85;81.34;98996.16;5012418;28;45224;-72
2021/11/28 03:53:50;;;;;;;;;6.00;2.00;;;;;4.86;80.83;99010.00;5012369;28;45446;-68
2021/11/28 03:56:16;;;;;;;;;2.00;2.00;;;;;4.63;80.95;98973.56;5012569;28;45436;-69
2021/11/28 03:58:41;;;;;;;;;2.00;2.00;;;;;4.81;81.30;99003.22;5012464;28;45404;-69
2021/11/28 04:01:09;;;;;;;;;1.50;1.00;;;;;4.78;81.23;98998.13;5012137;28;45404;-72
2021/11/28 04:03:36;;;;;;;;;2.25;2.00;;;;;4.81;81.31;99003.22;5014211;28;45280;-68
2021/11/28 04:06:02;;;;;;;;;1.25;1.25;;;;;4.80;80.84;99009.34;5016240;28;45189;-71
2021/11/28 04:08:27;;;;;;;;;2.75;2.75;;;;;4.69;81.44;98985.50;5015875;28;45456;-69
2021/11/28 04:10:53;;;;;;;;;1.00;1.00;;;;;4.79;80.89;99010.25;5014994;28;45317;-70
2021/11/28 04:13:18;;;;;;;;;4.50;2.00;;;;;4.81;81.39;99000.63;5017331;28;45211;-70
2021/11/28 04:15:43;;;;;;;;;4.50;2.00;;;;;4.82;81.32;99002.31;5019557;28;46089;-70
2021/11/28 04:18:09;;;;;;;;;3.00;2.00;;;;;4.83;81.21;99004.00;5026870;28;45233;-71
2021/11/28 04:20:35;;;;;;;;;1.75;1.75;;;;;4.82;80.82;99004.09;5019988;27;45329;-72
2021/11/28 04:23:02;;;;;;;;;2.00;1.00;;;;;4.78;80.57;98995.53;5019718;28;45374;-73
2021/11/28 04:25:27;;;;;;;;;2.00;2.00;;;;;4.81;80.62;98994.56;5017071;28;45535;-72
2021/11/28 04:27:53;;;;;;;;;3.00;2.00;;;;;4.82;80.90;99015.34;5019931;28;45286;-71
2021/11/28 04:30:20;;;;;;;;;3.00;2.00;;;;;4.80;80.87;99001.53;5033779;28;45455;-70
2021/11/28 04:32:45;;;;;;;;;2.25;2.00;;;;;4.82;81.23;99011.91;5015443;28;45536;-71
2021/11/28 04:35:10;;;;;;;;;1.00;1.00;;;;;4.83;80.92;99005.78;5014967;28;45279;-69
2021/11/28 04:37:36;;;;;;;;;1.50;1.50;;;;;4.76;80.82;98999.09;5015624;28;45276;-70
2021/11/28 04:40:04;;;;;;;;;2.00;1.00;;;;;4.77;81.08;99001.66;5014973;28;45245;-70
2021/11/28 04:42:29;;;;;;;;;1.25;1.25;;;;;4.83;81.50;99013.59;5013979;27;45321;-71
2021/11/28 04:44:55;;;;;;;;;2.00;1.75;;;;;4.80;81.70;99008.50;5014878;28;45450;-72
2021/11/28 04:47:21;;;;;;;;;3.00;3.00;;;;;4.74;81.91;99017.41;5015569;28;45386;-72
2021/11/28 04:49:48;;;;;;;;;1.75;1.75;;;;;4.72;82.58;99018.38;5020455;28;45452;-70
2021/11/28 04:52:13;;;;;;;;;2.00;2.00;;;;;4.69;82.65;99016.75;5024534;28;45316;-72
2021/11/28 04:54:39;;;;;;;;;3.00;2.00;;;;;4.60;100.00;99019.75;5020364;28;45394;-71
2021/11/28 04:57:05;;;;;;;;;3.25;2.00;;;;;4.55;89.53;99019.09;5016066;28;45282;-72
2021/11/28 04:59:31;;;;;;;;;2.00;1.00;;;;;4.47;87.98;99012.44;5015449;28;45340;-71
2021/11/28 05:01:56;;;;;;;;;2.00;2.00;;;;;4.44;86.93;99020.38;5016941;28;45333;-72
2021/11/28 05:04:22;;;;;;;;;2.75;2.50;;;;;4.42;86.26;99019.56;5015322;28;45666;-71
2021/11/28 05:06:48;;;;;;;;;4.75;2.25;;;;;4.36;86.38;99017.22;5015019;28;45338;-72
2021/11/28 05:09:13;;;;;;;;;2.50;2.00;;;;;4.39;86.23;99020.53;5013841;27;45365;-71
2021/11/28 05:11:39;;;;;;;;;1.00;1.00;;;;;4.42;86.51;99013.50;5015033;28;45577;-71
2021/11/28 05:14:04;;;;;;;;;2.25;1.00;;;;;4.44;86.11;99022.97;5014596;28;45383;-72
2021/11/28 05:16:30;;;;;;;;;2.25;2.00;;;;;4.46;85.83;99028.97;5015327;28;45471;-71
2021/11/28 05:18:55;;;;;;;;;4.75;1.25;;;;;4.47;85.53;99030.66;5017635;28;45432;-69
2021/11/28 05:21:21;;;;;;;;;3.00;2.00;;;;;4.40;85.68;99016.19;5016867;28;45304;-71
2021/11/28 05:23:47;;;;;;;;;3.75;1.75;;;;;4.51;85.24;99041.78;5014609;28;45435;-70
2021/11/28 05:26:12;;;;;;;;;1.00;1.00;;;;;4.48;85.53;99023.69;5014581;28;45420;-70
2021/11/28 05:28:38;;;;;;;;;2.25;2.25;;;;;4.53;85.33;99034.75;5014830;28;45440;-69
2021/11/28 05:31:03;;;;;;;;;2.00;1.00;;;;;4.53;85.29;99035.63;5014819;28;45307;-70
2021/11/28 05:33:29;;;;;;;;;1.75;1.00;;;;;4.52;85.30;99038.28;5014379;28;46303;-71
2021/11/28 05:35:54;;;;;;;;;5.25;1.75;;;;;4.37;86.00;99026.72;5014479;28;45396;-69
2021/11/28 05:38:20;;;;;;;;;2.75;2.00;;;;;4.50;86.02;99040.09;5015149;28;45317;-71
2021/11/28 05:40:45;;;;;;;;;2.00;1.75;;;;;4.52;85.76;99049.53;5030748;28;45328;-71
2021/11/28 05:43:11;;;;;;;;;4.75;2.00;;;;;4.48;86.15;99040.16;5017164;28;46184;-69
2021/11/28 05:45:36;;;;;;;;;3.00;3.00;;;;;4.52;86.34;99056.50;5016082;28;45243;-69
2021/11/28 05:48:02;;;;;;;;;1.75;1.00;;;;;4.47;86.70;99066.25;5000566;28;45325;-72
2021/11/28 05:50:30;;;;;;;;;3.50;2.25;;;;;4.40;86.99;99063.06;5014848;28;45337;-70
2021/11/28 05:52:56;;;;;;;;;3.25;2.00;;;;;4.34;87.82;99056.31;5014232;28;45333;-69
2021/11/28 05:55:22;;;;;;;;;2.75;2.75;;;;;4.31;87.81;99053.00;5014530;28;45290;-73
2021/11/28 05:57:47;;;;;;;;;5.50;3.25;;;;;4.27;90.28;99061.84;5014825;27;45399;-70
2021/11/28 06:00:16;;;;;;;;;4.25;3.25;;;;;4.21;90.48;99060.31;5015515;28;45328;-72
2021/11/28 06:02:41;;;;;;;;;6.50;4.00;;;;;4.16;91.59;99059.63;5014617;28;45421;-67
2021/11/28 06:05:08;;;;;;;;;4.50;4.25;;;;;4.11;91.07;99064.16;5014443;28;45351;-67
2021/11/28 06:07:34;;;;;;;;;8.75;5.00;;;;;4.07;91.50;99074.69;5016999;28;45297;-73
2021/11/28 06:09:59;;;;;;;;;4.75;3.00;;;;;4.00;91.99;99069.75;5014395;28;45267;-69
2021/11/28 06:12:25;;;;;;;;;4.00;4.00;;;;;3.94;93.06;99076.88;5014154;28;45685;-65
2021/11/28 06:14:50;;;;;;;;;3.00;3.00;;;;;3.94;93.44;99078.66;5014299;27;45356;-69
2021/11/28 06:17:15;;;;;;;;;2.75;1.25;;;;;3.90;92.90;99080.50;5014295;28;45302;-66
2021/11/28 06:19:41;;;;;;;;;10.50;3.00;;;;;3.86;93.61;99089.34;5014592;28;45409;-64
2021/11/28 06:22:08;;;;;;;;;5.00;3.50;;;;;3.87;93.54;99075.44;5014183;28;45332;-71
2021/11/28 06:24:35;;;;;;;;;1.75;1.75;;;;;3.86;93.49;99080.69;5015799;28;45408;-69
2021/11/28 06:27:01;;;;;;;;;7.75;3.00;;;;;3.89;94.29;99084.03;5016402;28;45350;-67
2021/11/28 06:29:27;;;;;;;;;3.75;3.00;;;;;3.90;94.14;99083.13;5017620;28;45317;-68
2021/11/28 06:31:52;;;;;;;;;6.00;5.00;;;;;3.91;93.69;99090.00;5017442;28;45268;-71
2021/11/28 06:34:17;;;;;;;;;8.25;4.25;;;;;3.90;93.88;99084.88;5015307;28;45298;-72
2021/11/28 06:36:43;;;;;;;;;4.75;4.00;;;;;3.86;93.25;99086.72;5014276;28;45525;-72
2021/11/28 06:39:08;;;;;;;;;3.50;3.25;;;;;3.94;93.23;99102.91;5014131;28;45646;-68
2021/11/28 06:41:34;;;;;;;;;4.25;2.75;;;;;3.94;92.71;99097.72;5013504;28;45248;-65
2021/11/28 06:43:59;;;;;;;;;2.25;2.25;;;;;3.97;93.20;99099.34;5013648;28;45352;-63
2021/11/28 06:46:24;;;;;;;;;5.00;3.00;;;;;3.99;93.06;99107.09;5013990;28;45281;-68
2021/11/28 06:48:50;;;;;;;;;1.75;1.75;;;;;4.00;92.53;99108.78;5014144;28;45647;-72
2021/11/28 06:51:15;;;;;;;;;4.25;2.25;;;;;4.03;92.46;99113.88;5013695;28;46731;-65
2021/11/28 06:53:41;;;;;;;;;4.00;3.25;;;;;3.95;92.72;99091.59;5013847;28;45510;-69
2021/11/28 06:56:07;;;;;;;;;6.00;3.50;;;;;4.08;91.95;99117.16;5015047;28;45313;-71
2021/11/28 06:58:33;;;;;;;;;2.75;2.75;;;;;4.07;91.95;99120.66;5018722;28;45513;-68
2021/11/28 07:00:59;;;;;;;;;2.25;2.00;;;;;4.15;91.41;99116.03;5014502;28;45270;-71
2021/11/28 07:03:25;;;;;;;;;3.50;2.00;;;;;4.14;91.00;99119.53;5013539;28;45353;-72
2021/11/28 07:05:50;;;;;;;;;4.00;2.00;;;;;4.22;91.37;99133.09;5013407;28;45326;-70
2021/11/28 07:08:16;;;;;;;;;0.00;0.00;;;;;4.24;90.44;99136.53;5014380;27;45493;-71
2021/11/28 07:10:41;;;;;;;;;2.00;2.00;;;;;4.26;90.32;99135.63;5018414;28;45213;-72
2021/11/28 07:13:07;;;;;;;;;1.00;1.00;;;;;4.27;88.52;99138.16;5013441;28;45398;-70
2021/11/28 07:15:33;;;;;;;;;1.00;1.00;;;;;4.28;88.12;99141.63;5014123;28;45345;-70
2021/11/28 07:17:59;;;;;;;;;4.25;2.00;;;;;4.20;87.94;99131.50;5014387;28;45470;-70
2021/11/28 07:20:25;;;;;;;;;2.25;1.75;;;;;4.31;87.76;99144.94;5015098;28;46096;-74
2021/11/28 07:22:51;;;;;;;;;4.50;3.00;;;;;4.35;88.01;99150.91;5013892;28;45424;-70
2021/11/28 07:25:17;;;;;;;;;2.75;1.25;;;;;4.36;88.14;99148.22;5013431;28;45336;-70
2021/11/28 07:27:43;;;;;;;;;1.00;1.00;;;;;4.38;87.64;99156.81;5013884;28;45313;-72
2021/11/28 07:30:08;;;;;;;;;1.50;1.50;;;;;4.42;87.34;99162.78;5013350;28;46625;-71
2021/11/28 07:32:34;;;;;;;;;1.75;1.75;;;;;4.40;86.73;99159.38;5011994;28;45413;-72
2021/11/28 07:34:59;;;;;;;;;1.25;1.00;;;;;4.43;86.72;99169.69;5014054;28;45670;-71
2021/11/28 07:37:27;;;;;;;;;1.75;1.75;;;;;4.44;86.02;99179.19;5014349;28;45272;-69
2021/11/28 07:39:53;;;;;;;;;2.00;1.00;;;;;4.30;86.50;99156.25;5024631;27;47580;-69
2021/11/28 07:42:18;;;;;;;;;3.00;2.00;;;;;4.48;85.57;99182.50;5025889;28;45257;-70
2021/11/28 07:44:43;;;;;;;;;1.00;1.00;;;;;4.46;85.61;99185.19;5014409;28;45235;-69
2021/11/28 07:47:09;;;;;;;;;5.00;1.00;;;;;4.42;85.70;99178.41;5014665;28;45192;-67
2021/11/28 07:49:34;;;;;;;;;0.75;0.50;;;;;4.46;84.47;99182.59;5014337;28;45648;-68
2021/11/28 07:51:59;;;;;;;;;3.00;2.00;;;;;4.45;84.69;99188.69;5016084;28;45518;-67
2021/11/28 07:54:25;;;;;;;;;1.75;1.00;;;;;4.51;84.76;99211.03;5013864;28;45365;-65
2021/11/28 07:56:50;;;;;;;;;1.00;1.00;;;;;4.48;84.79;99195.53;5012862;28;45404;-68
2021/11/28 07:59:16;;;;;;;;;1.00;1.00;;;;;4.55;84.32;99197.00;5012305;28;45506;-65
2021/11/28 08:01:41;;;;;;;;;1.00;1.00;;;;;4.57;84.20;99195.19;5012616;28;45329;-67
2021/11/28 08:04:06;;;;;;;;;2.00;1.25;;;;;4.52;84.13;99204.94;5012962;28;45303;-67
2021/11/28 08:06:32;;;;;;;;;2.00;2.00;;;;;4.61;83.89;99211.56;5012699;28;45415;-65
2021/11/28 08:08:57;;;;;;;;;1.00;1.00;;;;;4.64;83.84;99208.84;5013020;28;45348;-65
2021/11/28 08:11:23;;;;;;;;;3.00;1.00;;;;;4.65;83.60;99220.97;5012915;28;45317;-66
2021/11/28 08:13:49;;;;;;;;;1.00;0.25;;;;;4.48;83.41;99174.69;5012592;28;45322;-67
2021/11/28 08:16:16;;;;;;;;;3.25;1.75;;;;;4.71;83.50;99218.13;5013452;28;45390;-66
2021/11/28 08:18:41;;;;;;;;;2.00;1.00;;;;;4.71;82.88;99222.47;5012760;28;46041;-67
2021/11/28 08:21:07;;;;;;;;;2.00;1.75;;;;;4.71;82.91;99225.06;5011940;28;45321;-69
2021/11/28 08:23:33;;;;;;;;;2.00;1.00;;;;;4.71;83.33;99231.16;5030006;27;45312;-68
2021/11/28 08:25:58;;;;;;;;;1.75;1.75;;;;;4.73;82.69;99225.84;5016555;28;45531;-69
2021/11/28 08:28:24;;;;;;;;;5.25;2.00;;;;;4.73;83.09;99242.34;5012923;27;45408;-68
2021/11/28 08:30:49;;;;;;;;;3.00;2.00;;;;;4.76;82.76;99239.63;5012837;28;45318;-70
2021/11/28 08:33:15;;;;;;;;;3.00;1.00;;;;;4.78;82.90;99236.97;5014853;28;45442;-70
2021/11/28 08:35:40;;;;;;;;;0.00;0.00;;;;;4.78;82.30;99235.22;5032574;27;45358;-69
2021/11/28 08:38:06;;;;;;;;;1.25;1.00;;;;;4.79;82.53;99231.69;5015041;28;45379;-70
2021/11/28 08:40:32;;;;;;;;;4.00;2.00;;;;;4.83;82.08;99235.06;5015654;28;45352;-69
2021/11/28 08:42:58;;;;;;;;;1.00;1.00;;;;;4.64;82.30;99208.84;5015162;28;45401;-69
2021/11/28 08:45:23;;;;;;;;;1.50;1.50;;;;;4.68;82.17;99218.22;5017384;28;45309;-70
2021/11/28 08:47:49;;;;;;;;;3.25;2.00;;;;;4.89;81.97;99241.78;5016442;28;46063;-70
2021/11/28 08:50:15;;;;;;;;;2.00;2.00;;;;;4.89;81.58;99253.06;5013978;28;45397;-71
2021/11/28 08:52:44;;;;;;;;;4.00;2.50;;;;;4.81;82.06;99253.34;5015334;28;45376;-68
2021/11/28 08:55:10;;;;;;;;;2.50;2.50;;;;;4.87;81.33;99247.06;5015051;28;45474;-67
2021/11/28 08:57:36;;;;;;;;;4.00;2.00;;;;;4.90;81.25;99261.72;5014576;28;46081;-71
2021/11/28 09:00:04;;;;;;;;;5.00;4.00;;;;;4.90;81.81;99261.72;5018263;28;45337;-67
2021/11/28 09:02:30;;;;;;;;;5.00;3.00;;;;;4.87;81.97;99257.47;5015967;28;45253;-68
2021/11/28 09:04:55;;;;;;;;;3.00;3.00;;;;;4.90;81.67;99266.91;5016236;28;45176;-68
2021/11/28 09:07:21;;;;;;;;;5.00;4.00;;;;;4.91;81.76;99266.00;5014494;28;46082;-68
2021/11/28 09:09:46;;;;;;;;;3.75;3.75;;;;;4.95;81.41;99265.00;5015996;27;45413;-73
2021/11/28 09:12:12;;;;;;;;;4.00;3.75;;;;;4.88;81.85;99263.53;5016014;28;45352;-72
2021/11/28 09:14:37;;;;;;;;;7.50;3.75;;;;;4.95;81.16;99275.41;5015712;28;45310;-65
2021/11/28 09:17:03;;;;;;;;;4.00;3.00;;;;;4.96;81.59;99277.97;5014715;28;45386;-69
2021/11/28 09:21:57;;;;;;;;;4.50;4.50;;;;;4.97;81.37;99284.03;5015792;28;45357;-72
2021/11/28 09:24:37;;;;;;;;;7.50;5.25;;;;;4.96;81.98;99287.53;5015181;28;45273;-72
2021/11/28 09:27:06;;;;;;;;;10.00;4.00;;;;;4.93;81.58;99288.50;5014545;28;46059;-72
2021/11/28 09:29:43;;;;;;;;;4.75;3.50;;;;;4.78;81.58;99273.47;5012959;28;46262;-74
2021/11/28 09:32:10;;;;;;;;;4.00;3.25;;;;;4.91;81.48;99289.47;5014701;28;45443;-74
2021/11/28 09:34:36;;;;;;;;;5.25;3.25;;;;;4.84;81.59;99288.88;5016046;28;45858;-67
2021/11/28 09:37:02;;;;;;;;;10.00;7.00;;;;;4.87;81.47;99306.13;5015992;28;45518;-76
2021/11/28 09:39:28;;;;;;;;;2.50;2.25;;;;;4.85;81.53;99293.16;5016102;28;45361;-75
2021/11/28 09:42:00;;;;;;;;;4.75;3.00;;;;;4.84;81.25;99301.88;5015393;27;45317;-76
2021/11/28 09:44:28;;;;;;;;;6.75;3.75;;;;;4.85;81.78;99307.94;5015551;28;45739;-75
2021/11/28 09:46:54;;;;;;;;;2.50;2.50;;;;;4.86;81.40;99309.63;5014294;28;46537;-75
2021/11/28 09:49:23;;;;;;;;;4.75;4.00;;;;;4.77;81.13;99293.44;5014737;28;45211;-73
2021/11/28 09:51:49;;;;;;;;;2.75;2.75;;;;;4.84;80.85;99317.53;5014422;28;45373;-70
2021/11/28 09:54:15;;;;;;;;;4.75;2.25;;;;;4.87;80.36;99313.94;5015311;28;45416;-74
2021/11/28 09:56:41;;;;;;;;;3.00;3.00;;;;;4.85;80.84;99300.13;5013140;28;46240;-73
2021/11/28 09:59:08;;;;;;;;;3.75;3.75;;;;;4.95;80.67;99320.56;5013331;28;45362;-70
2021/11/28 10:01:35;;;;;;;;;5.00;2.75;;;;;4.97;79.46;99317.91;5013804;28;45316;-74
2021/11/28 10:04:01;;;;;;;;;4.50;3.00;;;;;4.94;79.81;99315.41;5014640;28;45381;-72
2021/11/28 10:06:28;;;;;;;;;5.50;3.00;;;;;4.99;79.47;99328.28;5014078;28;46132;-73
2021/11/28 10:08:55;;;;;;;;;8.75;4.25;;;;;5.00;80.80;99320.38;5013498;28;45408;-71
2021/11/28 10:11:40;;;;;;;;;5.25;5.25;;;;;4.89;89.49;99332.97;5014087;28;45320;-77
2021/11/28 10:14:14;;;;;;;;;7.25;5.50;;;;;4.71;90.72;99329.28;5014474;28;45242;-70
2021/11/28 10:16:42;;;;;;;;;10.00;6.00;;;;;4.51;90.17;99323.88;5014666;28;46059;-73
2021/11/28 10:19:09;;;;;;;;;5.00;4.50;;;;;4.36;89.74;99327.03;5015260;28;45367;-67
2021/11/28 10:21:35;;;;;;;;;5.25;5.00;;;;;4.16;89.74;99306.88;5015421;28;45298;-71
2021/11/28 10:24:11;;;;;;;;;7.50;5.00;;;;;4.22;90.00;99328.31;5015357;28;45701;-77
2021/11/28 10:27:02;;;;;;;;;7.75;4.00;;;;;4.27;88.93;99329.94;5015035;28;45393;-68
2021/11/28 10:29:30;;;;;;;;;6.25;5.25;;;;;4.30;87.72;99332.44;5015301;28;45464;-76
2021/11/28 10:31:59;;;;;;;;;4.00;4.00;;;;;4.22;87.93;99320.53;5015313;28;45337;-75
2021/11/28 10:34:28;;;;;;;;;8.50;5.25;;;;;4.26;86.20;99326.50;5032931;28;45351;-71
2021/11/28 10:37:13;;;;;;;;;5.00;5.00;;;;;4.27;84.96;99337.75;5017764;28;46251;-70
2021/11/28 10:39:46;;;;;;;;;3.25;3.25;;;;;4.24;84.02;99317.88;5017403;28;45234;-70
2021/11/28 10:42:18;;;;;;;;;3.75;3.75;;;;;4.32;84.11;99323.66;5017808;28;45333;-69
2021/11/28 10:44:57;;;;;;;;;10.50;6.00;;;;;4.41;83.80;99316.44;5033382;28;45459;-71
2021/11/28 10:47:35;;;;;;;;;6.00;5.00;;;;;4.45;83.08;99318.03;5031028;28;46989;-71
2021/11/28 10:50:07;;;;;;;;;8.25;4.00;;;;;4.45;82.83;99324.09;5017849;28;45363;-70
2021/11/28 10:52:33;;;;;;;;;6.50;4.75;;;;;4.49;82.65;99320.50;5016355;28;45250;-71
2021/11/28 10:54:58;;;;;;;;;6.00;6.00;;;;;4.53;82.54;99311.66;5015129;28;45490;-70
2021/11/28 10:57:25;;;;;;;;;6.00;5.25;;;;;4.59;82.73;99322.75;5015635;27;45441;-69
2021/11/28 10:59:56;;;;;;;;;8.00;5.00;;;;;4.61;81.99;99315.75;5016265;28;45409;-73
2021/11/28 11:02:23;;;;;;;;;11.00;4.75;;;;;4.65;82.06;99325.16;5016130;28;45234;-71
2021/11/28 11:04:49;;;;;;;;;6.00;4.50;;;;;4.59;82.09;99317.56;5013654;28;45286;-70
2021/11/28 11:07:17;;;;;;;;;12.75;5.00;;;;;4.49;82.79;99320.50;5013105;28;46119;-70
2021/11/28 11:09:45;;;;;;;;;11.25;5.00;;;;;4.35;100.00;99326.16;5012829;28;45282;-70
2021/11/28 11:12:28;;;;;;;;;6.00;4.75;;;;;4.20;100.00;99321.50;5013149;28;45504;-66
2021/11/28 11:14:56;;;;;;;;;10.50;5.00;;;;;4.11;100.00;99320.03;5029761;28;45446;-69
2021/11/28 11:17:23;;;;;;;;;9.00;6.25;;;;;4.08;100.00;99322.75;5015512;28;45383;-70
2021/11/28 11:19:49;;;;;;;;;15.00;5.25;;;;;4.11;100.00;99320.03;5019636;28;45246;-64
2021/11/28 11:22:18;;;;;;;;;7.00;5.00;;;;;4.17;100.00;99319.00;5021524;28;45223;-70
2021/11/28 11:24:51;;;;;;;;;8.50;5.50;;;;;4.24;100.00;99310.06;5014948;28;45425;-67
2021/11/28 11:27:30;;;;;;;;;9.75;7.75;;;;;4.28;100.00;99298.66;5014877;28;46483;-67
2021/11/28 11:30:01;;;;;;;;;10.25;7.00;;;;;4.32;100.00;99296.81;5014445;28;45343;-68
2021/11/28 11:32:48;;;;;;;;;8.00;4.75;;;;;4.39;100.00;99304.31;5015664;28;45373;-68
2021/11/28 11:35:17;;;;;;;;;8.50;6.25;;;;;4.48;100.00;99304.91;5014095;28;45593;-69
2021/11/28 11:37:43;;;;;;;;;4.75;3.00;;;;;4.58;100.00;99297.63;5013442;27;45346;-68
2021/11/28 11:40:10;;;;;;;;;9.00;5.50;;;;;4.60;100.00;99283.63;5013592;28;45200;-67
2021/11/28 11:42:38;;;;;;;;;6.75;5.25;;;;;4.63;100.00;99288.72;5012790;28;45356;-68
2021/11/28 11:45:05;;;;;;;;;5.25;4.00;;;;;4.61;100.00;99284.50;5011913;28;45542;-67